Terminal Aerodrome Forecast
Issued by NWS Nashville, TN

Home | Current Version | Previous Version | Text Only | Print | Product List | Glossary On
Versions: 1 2 3 4 5 6 7 8 9 10 11 12 13 14 15 16 17 18 19 20 21
002
FTUS44 KOHX 011720
TAFCSV
TAF
KCSV 011720Z 0118/0218 22007KT P6SM SCT030 BKN050
     FM012300 21005KT P6SM VCSH SCT020 BKN040
     FM020700 19003KT 5SM BR BKN015 OVC025=

USA.gov is the U.S. government's official web portal to all federal, state and local government web resources and services.